Terminal Aerodrome Forecast
Issued by NWS

Home | Current Version | Previous Version | Text Only | Print | Product List | Glossary On
Versions: 1 2 3 4 5 6 7 8 9 10 11 12
000
FTUS45 KSLC 121738
TAFENV
TAF
KENV 121738Z 1218/1318 07004KT 2SM BR BCFG OVC002
     FM130200 32003KT 4SM BR BKN010
     FM130600 VRB04KT 2SM BR BCFG OVC003
     FM131400 03004KT 4SM BR BKN008=

USA.gov is the U.S. government's official web portal to all federal, state and local government web resources and services.